Kohju — H3XI — position and weather

sailwx.info

Track history (hours):
 
Tides and Currents Weather Stations Pressure Air Temp Water Temp Dewpoint Dewpoint Depression Visibility Wind Speed Wind Dir Waves Ship Positions

Kohju

Last reported at 2016-Jul-17 22:32 UTC. Time now 2016-Aug-26 01:26 UTC.
Position S 32°44' E 016°24'.
Warning: this ship's position is 39 days out of date.

Length 289 m; draft 10 m.

Type: Cargo ship. MMSI: 357349000.

Date/timePositionNaut miles runAvg speedWind from/ knotsBaromVisibWave heightAir tempDewpointWater temp
2016-Jul-17 22:32S 32°44' E 016°24'3413.8
2016-Jul-17 20:07S 33°10' E 016°50'813.6
2016-Jul-17 19:32S 33°16' E 016°56'1613.9
2016-Jul-17 18:22S 33°29' E 017°08'1113.7
2016-Jul-17 17:33S 33°37' E 017°17'2814.0
2016-Jul-17 15:32S 33°59' E 017°39'2914.0
2016-Jul-17 13:26S 34°21' E 018°02'59212.6
2016-Jul-15 14:33S 32°59' E 029°46'1414.4
2016-Jul-15 13:33S 32°53' E 030°02'1514.5
2016-Jul-15 12:33S 32°47' E 030°18'1413.8
2016-Jul-15 11:32S 32°41' E 030°33'1414.0
2016-Jul-15 10:30S 32°35' E 030°48'1414.3
2016-Jul-15 09:31S 32°29' E 031°03'  
2016-Jul-10 08:04S 19°33' E 057°13'1313.2
2016-Jul-10 07:06S 19°31' E 057°27'713.3
2016-Jul-10 06:33S 19°29' E 057°34'1313.1
2016-Jul-10 05:33S 19°27' E 057°48'  
Track history (hours):
 
Tides and Currents Weather Stations Pressure Air Temp Water Temp Dewpoint Dewpoint Depression Visibility Wind Speed Wind Dir Waves Ship Positions

Kohju

Last reported at 2016-Jul-17 22:32 UTC. Time now 2016-Aug-26 01:26 UTC.
Position S 32°44' E 016°24'.
Warning: this ship's position is 39 days out of date.

Length 289 m; draft 10 m.

Type: Cargo ship. MMSI: 357349000.

Date/timePositionNaut miles runAvg speedWind from/ knotsBaromVisibWave heightAir tempDewpointWater temp
2016-Jul-17 22:32S 32°44' E 016°24'3413.8
2016-Jul-17 20:07S 33°10' E 016°50'813.6
2016-Jul-17 19:32S 33°16' E 016°56'1613.9
2016-Jul-17 18:22S 33°29' E 017°08'1113.7
2016-Jul-17 17:33S 33°37' E 017°17'2814.0
2016-Jul-17 15:32S 33°59' E 017°39'2914.0
2016-Jul-17 13:26S 34°21' E 018°02'59212.6
2016-Jul-15 14:33S 32°59' E 029°46'1414.4
2016-Jul-15 13:33S 32°53' E 030°02'1514.5
2016-Jul-15 12:33S 32°47' E 030°18'1413.8
2016-Jul-15 11:32S 32°41' E 030°33'1414.0
2016-Jul-15 10:30S 32°35' E 030°48'1414.3
2016-Jul-15 09:31S 32°29' E 031°03'  
2016-Jul-10 08:04S 19°33' E 057°13'1313.2
2016-Jul-10 07:06S 19°31' E 057°27'713.3
2016-Jul-10 06:33S 19°29' E 057°34'1313.1
2016-Jul-10 05:33S 19°27' E 057°48'  

Dump ship's entire track history